Time;durP1;ratioP1;P1;durP2;ratioP2;P2;SDS_P1;SDS_P2;PMS_P1;PMS_P2;Temp;Humidity;BMP_temperature;BMP_pressure;BME280_temperature;BME280_humidity;BME280_pressure;Samples;Min_cycle;Max_cycle;Signal;HPM_P1;HPM_P2
2021/02/17 10:01:48;;;;;;;60;48;;;;;;;2.35;73.23828;98485.23;;;;
2021/02/17 10:11:46;;;;;;;79.6;71.2;;;;;;;2.09;76.40234;98472.81;;;;
2021/02/17 10:21:44;;;;;;;96.1;83.1;;;;;;;1.89;78.53418;98473.47;;;;
2021/02/17 10:31:42;;;;;;;105.4;78.6;;;;;;;1.54;81.74902;98484.59;;;;
2021/02/17 10:41:40;;;;;;;71.6;60.4;;;;;;;1.48;83.0918;98482.95;;;;
2021/02/17 10:51:37;;;;;;;76;60.1;;;;;;;1.28;85.3125;98482.75;;;;
2021/02/17 11:01:35;;;;;;;74.6;59.7;;;;;;;1.48;85.28516;98480.3;;;;
2021/02/17 11:11:33;;;;;;;68.7;60.6;;;;;;;1.43;85.86035;98485.54;;;;
2021/02/17 11:21:31;;;;;;;80.4;63.9;;;;;;;1.2;87.33301;98480.53;;;;
2021/02/17 11:31:28;;;;;;;77.1;67.7;;;;;;;1.21;88.09375;98471.53;;;;
2021/02/17 11:41:26;;;;;;;80.9;63.2;;;;;;;1.22;88.97559;98470.45;;;;
2021/02/17 11:51:24;;;;;;;71.7;61.2;;;;;;;1.38;88.86523;98469.58;;;;
2021/02/17 12:01:22;;;;;;;77;60.4;;;;;;;1.32;90.16211;98475.89;;;;
2021/02/17 12:11:20;;;;;;;69.3;52;;;;;;;1.3;90.83105;98470.82;;;;
2021/02/17 12:21:17;;;;;;;46.7;37.9;;;;;;;1.3;92.3125;98467.36;;;;
2021/02/17 12:31:15;;;;;;;39;30.5;;;;;;;1.4;93.80664;98462.14;;;;
2021/02/17 12:41:13;;;;;;;23.8;18.4;;;;;;;1.6;93.73047;98469.52;;;;
2021/02/17 13:01:08;;;;;;;18.7;13.8;;;;;;;1.61;94.64258;98471.1;;;;
2021/02/17 13:11:06;;;;;;;15.3;13.7;;;;;;;1.67;95.44922;98481.52;;;;
2021/02/17 13:21:04;;;;;;;19.9;15.3;;;;;;;1.87;94.58105;98480.91;;;;
2021/02/17 13:31:02;;;;;;;23.5;15.4;;;;;;;1.76;94.82129;98487.19;;;;
2021/02/17 13:41:00;;;;;;;18.9;13.7;;;;;;;1.75;94.29102;98491.69;;;;
2021/02/17 13:50:57;;;;;;;15.6;13.9;;;;;;;1.87;93.79102;98484.37;;;;
2021/02/17 14:00:55;;;;;;;13;11.6;;;;;;;1.88;93.83691;98491.27;;;;
2021/02/17 14:10:54;;;;;;;17.8;14;;;;;;;1.89;94.16895;98492.88;;;;
2021/02/17 14:30:49;;;;;;;15.8;12.9;;;;;;;1.84;94.39941;98500.79;;;;
2021/02/17 14:40:46;;;;;;;19.2;14.6;;;;;;;1.81;95.08398;98511.13;;;;
2021/02/17 14:50:44;;;;;;;17.7;12.5;;;;;;;1.8;95.52344;98513;;;;
2021/02/17 15:00:42;;;;;;;17.4;12.5;;;;;;;1.86;96.23926;98511.98;;;;
2021/02/17 15:10:40;;;;;;;20.4;17;;;;;;;1.88;97.38574;98527.66;;;;
2021/02/17 15:20:38;;;;;;;20.1;15.8;;;;;;;1.93;97.93652;98522.41;;;;
2021/02/17 15:30:36;;;;;;;17.5;14.9;;;;;;;1.94;98.55371;98535.42;;;;
2021/02/17 15:40:33;;;;;;;26.7;19.2;;;;;;;1.98;98.75098;98544.5;;;;
2021/02/17 15:50:31;;;;;;;28;16.6;;;;;;;1.99;98.71973;98550.62;;;;
2021/02/17 16:00:29;;;;;;;22.1;16.7;;;;;;;1.86;99.40332;98546.53;;;;
2021/02/17 16:10:27;;;;;;;17.7;15.7;;;;;;;1.76;100;98545.63;;;;
2021/02/17 16:20:25;;;;;;;17.8;15.9;;;;;;;2;100;98571.64;;;;
2021/02/17 16:30:23;;;;;;;30.4;22.2;;;;;;;2;100;98578.8;;;;
2021/02/17 16:40:21;;;;;;;22.1;19.7;;;;;;;2.06;100;98575.13;;;;
2021/02/17 16:50:19;;;;;;;22;18.6;;;;;;;2.15;100;98588.78;;;;
2021/02/17 17:00:18;;;;;;;22.5;18.9;;;;;;;2.2;100;98597.59;;;;
2021/02/17 17:10:15;;;;;;;24.2;20.2;;;;;;;2.19;100;98598.63;;;;
2021/02/17 17:20:13;;;;;;;24.1;20.7;;;;;;;2.22;100;98613.3;;;;
2021/02/17 17:30:11;;;;;;;31.7;27.1;;;;;;;2.19;100;98621.75;;;;
2021/02/17 17:40:08;;;;;;;40.7;32.3;;;;;;;2.18;100;98622.83;;;;
2021/02/17 17:50:06;;;;;;;54;36.3;;;;;;;2.15;100;98629.46;;;;
2021/02/17 18:00:04;;;;;;;48.5;36.2;;;;;;;2.11;100;98643.5;;;;
2021/02/17 18:10:02;;;;;;;49.5;36.3;;;;;;;2.09;100;98640.27;;;;
2021/02/17 18:20:01;;;;;;;48.2;31.1;;;;;;;2.12;100;98653.09;;;;
2021/02/17 18:29:58;;;;;;;47.2;37.8;;;;;;;2.11;100;98662.11;;;;
2021/02/17 18:39:56;;;;;;;58.6;34.9;;;;;;;2.14;100;98661.6;;;;
2021/02/17 18:49:55;;;;;;;52.5;45.7;;;;;;;2.15;100;98672;;;;
2021/02/17 18:59:55;;;;;;;54.3;44;;;;;;;2.17;100;98677.85;;;;
2021/02/17 19:09:50;;;;;;;52;41.1;;;;;;;2.17;100;98687.68;;;;
2021/02/17 19:19:48;;;;;;;50;40.3;;;;;;;2.15;100;98679.17;;;;
2021/02/17 19:29:46;;;;;;;49.7;41.2;;;;;;;2.24;100;98690.94;;;;
2021/02/17 19:39:44;;;;;;;59.1;40.2;;;;;;;2.24;100;98697.07;;;;
2021/02/17 19:49:42;;;;;;;44.3;35.9;;;;;;;2.26;100;98705.59;;;;
2021/02/17 19:59:40;;;;;;;48.4;38;;;;;;;2.34;100;98699.02;;;;
2021/02/17 20:09:38;;;;;;;52.4;41.4;;;;;;;2.33;100;98698.21;;;;
2021/02/17 20:19:36;;;;;;;63.1;43.2;;;;;;;2.31;100;98707.5;;;;
2021/02/17 20:29:34;;;;;;;52.5;38.2;;;;;;;2.33;100;98708.84;;;;
2021/02/17 20:39:32;;;;;;;64.2;40.6;;;;;;;2.31;100;98718.95;;;;
2021/02/17 20:49:30;;;;;;;50.2;42;;;;;;;2.33;100;98721.34;;;;
2021/02/17 20:59:28;;;;;;;57.8;41;;;;;;;2.3;100;98729.82;;;;
2021/02/17 21:09:26;;;;;;;61.9;42.2;;;;;;;2.3;100;98730.63;;;;
2021/02/17 21:19:24;;;;;;;51.6;40.8;;;;;;;2.31;100;98724.27;;;;
2021/02/17 21:29:22;;;;;;;53.2;39.8;;;;;;;2.32;100;98722.41;;;;
2021/02/17 21:39:20;;;;;;;49.1;36.3;;;;;;;2.31;100;98732.24;;;;
2021/02/17 21:49:18;;;;;;;49;35.9;;;;;;;2.3;100;98740.45;;;;
2021/02/17 21:59:15;;;;;;;57;36.6;;;;;;;2.32;100;98743.69;;;;
2021/02/17 22:09:13;;;;;;;45.9;37.5;;;;;;;2.3;100;98745.78;;;;
2021/02/17 22:19:11;;;;;;;55.4;37.6;;;;;;;2.32;100;98746.34;;;;
2021/02/17 22:29:09;;;;;;;50.1;41.8;;;;;;;2.28;100;98753.21;;;;
2021/02/17 22:39:09;;;;;;;49.9;39.6;;;;;;;2.3;100;98775.03;;;;
2021/02/17 22:49:05;;;;;;;56.9;42;;;;;;;2.28;100;98777.95;;;;
2021/02/17 22:59:03;;;;;;;42.8;38.3;;;;;;;2.31;100;98792.59;;;;
2021/02/17 23:09:01;;;;;;;55.8;37.8;;;;;;;2.26;100;98792.52;;;;
2021/02/17 23:18:59;;;;;;;52.1;36.9;;;;;;;2.25;100;98799.72;;;;
2021/02/17 23:28:57;;;;;;;42.2;34.5;;;;;;;2.21;100;98803.12;;;;
2021/02/17 23:38:55;;;;;;;45;38;;;;;;;2.22;100;98804.73;;;;
2021/02/17 23:48:55;;;;;;;50.3;35.9;;;;;;;2.19;100;98816.64;;;;
2021/02/17 23:58:50;;;;;;;38.8;33;;;;;;;2.18;100;98814.25;;;;
